sensor_id;sensor_type;location;lat;lon;timestamp;temperature;humidity
37794;DHT22;23632;48.826;15.176;2022-07-21T00:00:25;22.50;48.00
37794;DHT22;23632;48.826;15.176;2022-07-21T00:02:55;22.50;48.20
37794;DHT22;23632;48.826;15.176;2022-07-21T00:05:24;22.50;48.30
37794;DHT22;23632;48.826;15.176;2022-07-21T00:07:52;22.50;48.30
37794;DHT22;23632;48.826;15.176;2022-07-21T00:10:22;22.40;48.40
37794;DHT22;23632;48.826;15.176;2022-07-21T00:12:51;22.40;48.40
37794;DHT22;23632;48.826;15.176;2022-07-21T00:15:20;22.40;48.40
37794;DHT22;23632;48.826;15.176;2022-07-21T00:17:49;22.40;48.50
37794;DHT22;23632;48.826;15.176;2022-07-21T00:20:18;22.40;48.50
37794;DHT22;23632;48.826;15.176;2022-07-21T00:22:45;22.40;48.60
37794;DHT22;23632;48.826;15.176;2022-07-21T00:25:14;22.30;49.90
37794;DHT22;23632;48.826;15.176;2022-07-21T00:27:42;22.30;48.60
37794;DHT22;23632;48.826;15.176;2022-07-21T00:30:10;22.40;48.70
37794;DHT22;23632;48.826;15.176;2022-07-21T00:32:39;22.30;48.70
37794;DHT22;23632;48.826;15.176;2022-07-21T00:35:08;22.30;48.90
37794;DHT22;23632;48.826;15.176;2022-07-21T00:37:38;22.30;49.30
37794;DHT22;23632;48.826;15.176;2022-07-21T00:40:07;22.30;48.90
37794;DHT22;23632;48.826;15.176;2022-07-21T00:42:36;22.30;49.00
37794;DHT22;23632;48.826;15.176;2022-07-21T00:45:06;22.30;49.00
37794;DHT22;23632;48.826;15.176;2022-07-21T00:47:34;22.30;49.10
37794;DHT22;23632;48.826;15.176;2022-07-21T00:50:05;22.30;49.10
37794;DHT22;23632;48.826;15.176;2022-07-21T00:52:35;22.30;49.30
37794;DHT22;23632;48.826;15.176;2022-07-21T00:55:03;22.30;49.20
37794;DHT22;23632;48.826;15.176;2022-07-21T00:57:32;22.30;49.30
37794;DHT22;23632;48.826;15.176;2022-07-21T00:59:59;22.30;49.20
37794;DHT22;23632;48.826;15.176;2022-07-21T01:02:26;22.20;49.20
37794;DHT22;23632;48.826;15.176;2022-07-21T01:04:54;22.20;49.30
37794;DHT22;23632;48.826;15.176;2022-07-21T01:07:22;22.20;49.40
37794;DHT22;23632;48.826;15.176;2022-07-21T01:09:50;22.10;49.40
37794;DHT22;23632;48.826;15.176;2022-07-21T01:12:17;22.10;49.80
37794;DHT22;23632;48.826;15.176;2022-07-21T01:14:44;22.10;49.90
37794;DHT22;23632;48.826;15.176;2022-07-21T01:17:12;22.00;51.20
37794;DHT22;23632;48.826;15.176;2022-07-21T01:19:39;22.00;50.30
37794;DHT22;23632;48.826;15.176;2022-07-21T01:22:06;21.90;50.70
37794;DHT22;23632;48.826;15.176;2022-07-21T01:24:34;21.90;50.60
37794;DHT22;23632;48.826;15.176;2022-07-21T01:27:01;21.80;50.40
37794;DHT22;23632;48.826;15.176;2022-07-21T01:29:28;21.70;50.10
37794;DHT22;23632;48.826;15.176;2022-07-21T01:31:55;21.70;50.30
37794;DHT22;23632;48.826;15.176;2022-07-21T01:34:23;21.60;50.30
37794;DHT22;23632;48.826;15.176;2022-07-21T01:36:50;21.60;50.50
37794;DHT22;23632;48.826;15.176;2022-07-21T01:39:18;21.60;50.50
37794;DHT22;23632;48.826;15.176;2022-07-21T01:42:03;21.60;50.50
37794;DHT22;23632;48.826;15.176;2022-07-21T01:44:32;21.50;51.10
37794;DHT22;23632;48.826;15.176;2022-07-21T01:46:59;21.50;50.90
37794;DHT22;23632;48.826;15.176;2022-07-21T01:49:26;21.50;51.00
37794;DHT22;23632;48.826;15.176;2022-07-21T01:51:53;21.40;51.00
37794;DHT22;23632;48.826;15.176;2022-07-21T01:54:20;21.40;51.00
37794;DHT22;23632;48.826;15.176;2022-07-21T01:56:50;21.40;51.00
37794;DHT22;23632;48.826;15.176;2022-07-21T01:59:18;21.30;51.10
37794;DHT22;23632;48.826;15.176;2022-07-21T02:01:46;21.30;51.20
37794;DHT22;23632;48.826;15.176;2022-07-21T02:04:14;21.20;51.20
37794;DHT22;23632;48.826;15.176;2022-07-21T02:06:41;21.20;51.50
37794;DHT22;23632;48.826;15.176;2022-07-21T02:09:08;21.10;51.60
37794;DHT22;23632;48.826;15.176;2022-07-21T02:11:36;21.10;51.60
37794;DHT22;23632;48.826;15.176;2022-07-21T02:14:04;21.10;51.90
37794;DHT22;23632;48.826;15.176;2022-07-21T02:16:32;21.00;51.80
37794;DHT22;23632;48.826;15.176;2022-07-21T02:18:59;21.00;52.00
37794;DHT22;23632;48.826;15.176;2022-07-21T02:21:26;20.90;52.30
37794;DHT22;23632;48.826;15.176;2022-07-21T02:23:53;20.90;52.30
37794;DHT22;23632;48.826;15.176;2022-07-21T02:26:21;20.90;52.30
37794;DHT22;23632;48.826;15.176;2022-07-21T02:28:48;20.80;52.30
37794;DHT22;23632;48.826;15.176;2022-07-21T02:31:16;20.80;53.50
37794;DHT22;23632;48.826;15.176;2022-07-21T02:33:43;20.90;52.50
37794;DHT22;23632;48.826;15.176;2022-07-21T02:36:11;20.80;52.60
37794;DHT22;23632;48.826;15.176;2022-07-21T02:38:38;20.80;52.70
37794;DHT22;23632;48.826;15.176;2022-07-21T02:41:05;20.80;52.80
37794;DHT22;23632;48.826;15.176;2022-07-21T02:43:33;20.70;52.70
37794;DHT22;23632;48.826;15.176;2022-07-21T02:46:00;20.70;52.60
37794;DHT22;23632;48.826;15.176;2022-07-21T02:48:27;20.80;52.80
37794;DHT22;23632;48.826;15.176;2022-07-21T02:50:55;20.70;52.70
37794;DHT22;23632;48.826;15.176;2022-07-21T02:53:23;20.70;53.00
37794;DHT22;23632;48.826;15.176;2022-07-21T02:55:51;20.70;53.10
37794;DHT22;23632;48.826;15.176;2022-07-21T02:58:28;20.70;53.40
37794;DHT22;23632;48.826;15.176;2022-07-21T03:01:04;20.70;54.90
37794;DHT22;23632;48.826;15.176;2022-07-21T03:03:34;20.70;54.00
37794;DHT22;23632;48.826;15.176;2022-07-21T03:06:04;20.70;53.60
37794;DHT22;23632;48.826;15.176;2022-07-21T03:08:32;20.70;53.60
37794;DHT22;23632;48.826;15.176;2022-07-21T03:11:00;20.70;54.00
37794;DHT22;23632;48.826;15.176;2022-07-21T03:13:27;20.70;54.50
37794;DHT22;23632;48.826;15.176;2022-07-21T03:15:54;20.80;55.10
37794;DHT22;23632;48.826;15.176;2022-07-21T03:18:22;20.90;55.30
37794;DHT22;23632;48.826;15.176;2022-07-21T03:20:49;20.90;55.00
37794;DHT22;23632;48.826;15.176;2022-07-21T03:23:16;21.00;55.60
37794;DHT22;23632;48.826;15.176;2022-07-21T03:25:44;21.00;55.50
37794;DHT22;23632;48.826;15.176;2022-07-21T03:28:11;21.00;55.40
37794;DHT22;23632;48.826;15.176;2022-07-21T03:30:38;21.00;55.60
37794;DHT22;23632;48.826;15.176;2022-07-21T03:33:06;21.00;55.50
37794;DHT22;23632;48.826;15.176;2022-07-21T03:35:33;21.00;55.50
37794;DHT22;23632;48.826;15.176;2022-07-21T03:38:03;20.90;55.60
37794;DHT22;23632;48.826;15.176;2022-07-21T03:40:34;20.90;55.30
37794;DHT22;23632;48.826;15.176;2022-07-21T03:43:05;20.90;55.70
37794;DHT22;23632;48.826;15.176;2022-07-21T03:45:34;20.80;55.80
37794;DHT22;23632;48.826;15.176;2022-07-21T03:48:04;20.80;55.80
37794;DHT22;23632;48.826;15.176;2022-07-21T03:50:33;20.70;55.80
37794;DHT22;23632;48.826;15.176;2022-07-21T03:53:02;20.70;55.90
37794;DHT22;23632;48.826;15.176;2022-07-21T03:55:31;20.70;56.30
37794;DHT22;23632;48.826;15.176;2022-07-21T03:58:01;20.70;56.00
37794;DHT22;23632;48.826;15.176;2022-07-21T04:00:40;20.70;56.50
37794;DHT22;23632;48.826;15.176;2022-07-21T04:03:09;20.70;57.30
37794;DHT22;23632;48.826;15.176;2022-07-21T04:05:39;20.60;56.50
37794;DHT22;23632;48.826;15.176;2022-07-21T04:08:07;20.60;56.60
37794;DHT22;23632;48.826;15.176;2022-07-21T04:10:36;20.60;56.60
37794;DHT22;23632;48.826;15.176;2022-07-21T04:13:11;20.60;56.70
37794;DHT22;23632;48.826;15.176;2022-07-21T04:15:40;20.60;58.00
37794;DHT22;23632;48.826;15.176;2022-07-21T04:18:09;20.60;57.40
37794;DHT22;23632;48.826;15.176;2022-07-21T04:20:36;20.60;57.90
37794;DHT22;23632;48.826;15.176;2022-07-21T04:23:04;20.60;57.70
37794;DHT22;23632;48.826;15.176;2022-07-21T04:25:33;20.60;58.00
37794;DHT22;23632;48.826;15.176;2022-07-21T04:28:00;20.60;58.00
37794;DHT22;23632;48.826;15.176;2022-07-21T04:30:27;20.60;58.30
37794;DHT22;23632;48.826;15.176;2022-07-21T04:32:54;20.60;58.10
37794;DHT22;23632;48.826;15.176;2022-07-21T04:35:21;20.60;58.30
37794;DHT22;23632;48.826;15.176;2022-07-21T04:37:49;20.60;58.60
37794;DHT22;23632;48.826;15.176;2022-07-21T04:40:17;20.60;58.60
37794;DHT22;23632;48.826;15.176;2022-07-21T04:42:46;20.70;59.00
37794;DHT22;23632;48.826;15.176;2022-07-21T04:45:14;20.70;58.80
37794;DHT22;23632;48.826;15.176;2022-07-21T04:47:47;20.70;58.90
37794;DHT22;23632;48.826;15.176;2022-07-21T04:50:20;20.70;59.00
37794;DHT22;23632;48.826;15.176;2022-07-21T04:52:49;20.80;59.00
37794;DHT22;23632;48.826;15.176;2022-07-21T04:55:18;20.80;58.90
37794;DHT22;23632;48.826;15.176;2022-07-21T04:57:48;20.80;59.40
37794;DHT22;23632;48.826;15.176;2022-07-21T05:00:19;20.90;59.70
37794;DHT22;23632;48.826;15.176;2022-07-21T05:02:47;20.90;59.60
37794;DHT22;23632;48.826;15.176;2022-07-21T05:05:15;20.90;59.40
37794;DHT22;23632;48.826;15.176;2022-07-21T05:07:42;21.00;59.70
37794;DHT22;23632;48.826;15.176;2022-07-21T05:10:13;21.00;59.70
37794;DHT22;23632;48.826;15.176;2022-07-21T05:12:41;21.10;60.50
37794;DHT22;23632;48.826;15.176;2022-07-21T05:15:09;21.10;60.00
37794;DHT22;23632;48.826;15.176;2022-07-21T05:17:38;21.20;60.20
37794;DHT22;23632;48.826;15.176;2022-07-21T05:20:07;21.30;60.30
37794;DHT22;23632;48.826;15.176;2022-07-21T05:22:36;21.40;60.20
37794;DHT22;23632;48.826;15.176;2022-07-21T05:25:05;21.50;60.30
37794;DHT22;23632;48.826;15.176;2022-07-21T05:27:33;21.50;60.00
37794;DHT22;23632;48.826;15.176;2022-07-21T05:30:00;21.70;60.10
37794;DHT22;23632;48.826;15.176;2022-07-21T05:32:28;21.80;60.10
37794;DHT22;23632;48.826;15.176;2022-07-21T05:34:55;21.90;60.00
37794;DHT22;23632;48.826;15.176;2022-07-21T05:37:22;22.00;60.00
37794;DHT22;23632;48.826;15.176;2022-07-21T05:39:49;22.10;59.90
37794;DHT22;23632;48.826;15.176;2022-07-21T05:42:17;22.20;59.90
37794;DHT22;23632;48.826;15.176;2022-07-21T05:44:44;22.40;60.10
37794;DHT22;23632;48.826;15.176;2022-07-21T05:47:11;22.40;60.10
37794;DHT22;23632;48.826;15.176;2022-07-21T05:49:39;22.50;60.10
37794;DHT22;23632;48.826;15.176;2022-07-21T05:52:06;22.60;60.00
37794;DHT22;23632;48.826;15.176;2022-07-21T05:54:33;22.70;60.00
37794;DHT22;23632;48.826;15.176;2022-07-21T05:57:00;22.70;59.90
37794;DHT22;23632;48.826;15.176;2022-07-21T05:59:29;22.80;60.00
37794;DHT22;23632;48.826;15.176;2022-07-21T06:01:56;22.80;59.90
37794;DHT22;23632;48.826;15.176;2022-07-21T06:04:24;22.90;59.80
37794;DHT22;23632;48.826;15.176;2022-07-21T06:06:51;22.90;59.70
37794;DHT22;23632;48.826;15.176;2022-07-21T06:09:20;23.00;59.60
37794;DHT22;23632;48.826;15.176;2022-07-21T06:11:51;23.10;59.50
37794;DHT22;23632;48.826;15.176;2022-07-21T06:14:19;23.20;59.70
37794;DHT22;23632;48.826;15.176;2022-07-21T06:16:47;23.30;59.40
37794;DHT22;23632;48.826;15.176;2022-07-21T06:19:14;23.40;59.60
37794;DHT22;23632;48.826;15.176;2022-07-21T06:21:41;23.40;59.50
37794;DHT22;23632;48.826;15.176;2022-07-21T06:24:12;23.50;59.10
37794;DHT22;23632;48.826;15.176;2022-07-21T06:26:40;23.60;58.70
37794;DHT22;23632;48.826;15.176;2022-07-21T06:29:08;23.80;58.70
37794;DHT22;23632;48.826;15.176;2022-07-21T06:31:35;23.90;58.30
37794;DHT22;23632;48.826;15.176;2022-07-21T06:34:03;24.00;58.30
37794;DHT22;23632;48.826;15.176;2022-07-21T06:36:30;24.20;58.10
37794;DHT22;23632;48.826;15.176;2022-07-21T06:38:57;24.20;58.00
37794;DHT22;23632;48.826;15.176;2022-07-21T06:41:25;24.40;58.00
37794;DHT22;23632;48.826;15.176;2022-07-21T06:43:52;24.60;57.60
37794;DHT22;23632;48.826;15.176;2022-07-21T06:46:19;24.70;57.50
37794;DHT22;23632;48.826;15.176;2022-07-21T06:48:47;24.90;57.30
37794;DHT22;23632;48.826;15.176;2022-07-21T06:51:14;24.90;56.70
37794;DHT22;23632;48.826;15.176;2022-07-21T06:53:41;25.10;56.80
37794;DHT22;23632;48.826;15.176;2022-07-21T06:56:09;25.20;56.70
37794;DHT22;23632;48.826;15.176;2022-07-21T06:58:36;25.30;56.80
37794;DHT22;23632;48.826;15.176;2022-07-21T07:01:17;25.40;56.50
37794;DHT22;23632;48.826;15.176;2022-07-21T07:03:45;25.60;55.90
37794;DHT22;23632;48.826;15.176;2022-07-21T07:06:14;25.70;56.00
37794;DHT22;23632;48.826;15.176;2022-07-21T07:08:41;25.80;55.70
37794;DHT22;23632;48.826;15.176;2022-07-21T07:11:18;25.90;55.80
37794;DHT22;23632;48.826;15.176;2022-07-21T07:13:46;26.00;55.80
37794;DHT22;23632;48.826;15.176;2022-07-21T07:16:26;26.10;55.50
37794;DHT22;23632;48.826;15.176;2022-07-21T07:18:54;26.20;55.10
37794;DHT22;23632;48.826;15.176;2022-07-21T07:21:22;26.30;55.30
37794;DHT22;23632;48.826;15.176;2022-07-21T07:23:50;26.40;55.10
37794;DHT22;23632;48.826;15.176;2022-07-21T07:26:17;26.50;55.10
37794;DHT22;23632;48.826;15.176;2022-07-21T07:28:44;26.60;55.00
37794;DHT22;23632;48.826;15.176;2022-07-21T07:31:11;26.60;55.30
37794;DHT22;23632;48.826;15.176;2022-07-21T07:33:38;26.70;55.00
37794;DHT22;23632;48.826;15.176;2022-07-21T07:36:06;26.80;54.70
37794;DHT22;23632;48.826;15.176;2022-07-21T07:38:38;26.90;54.90
37794;DHT22;23632;48.826;15.176;2022-07-21T07:41:06;26.90;55.20
37794;DHT22;23632;48.826;15.176;2022-07-21T07:43:33;27.00;54.90
37794;DHT22;23632;48.826;15.176;2022-07-21T07:46:00;27.10;55.00
37794;DHT22;23632;48.826;15.176;2022-07-21T07:48:28;27.10;55.20
37794;DHT22;23632;48.826;15.176;2022-07-21T07:50:57;27.20;55.30
37794;DHT22;23632;48.826;15.176;2022-07-21T07:53:25;27.20;55.60
37794;DHT22;23632;48.826;15.176;2022-07-21T07:55:52;27.30;55.80
37794;DHT22;23632;48.826;15.176;2022-07-21T07:58:19;27.30;56.00
37794;DHT22;23632;48.826;15.176;2022-07-21T08:00:46;27.40;56.10
37794;DHT22;23632;48.826;15.176;2022-07-21T08:03:22;27.40;56.10
37794;DHT22;23632;48.826;15.176;2022-07-21T08:05:52;27.40;55.60
37794;DHT22;23632;48.826;15.176;2022-07-21T08:08:21;27.50;55.50
37794;DHT22;23632;48.826;15.176;2022-07-21T08:10:48;27.60;55.70
37794;DHT22;23632;48.826;15.176;2022-07-21T08:13:17;27.60;55.60
37794;DHT22;23632;48.826;15.176;2022-07-21T08:15:46;27.60;55.90
37794;DHT22;23632;48.826;15.176;2022-07-21T08:18:15;27.70;55.40
37794;DHT22;23632;48.826;15.176;2022-07-21T08:20:43;27.70;55.60
37794;DHT22;23632;48.826;15.176;2022-07-21T08:23:12;27.80;55.70
37794;DHT22;23632;48.826;15.176;2022-07-21T08:25:41;27.80;55.80
37794;DHT22;23632;48.826;15.176;2022-07-21T08:28:09;27.90;55.90
37794;DHT22;23632;48.826;15.176;2022-07-21T08:30:37;28.00;56.10
37794;DHT22;23632;48.826;15.176;2022-07-21T08:33:04;28.10;55.90
37794;DHT22;23632;48.826;15.176;2022-07-21T08:35:31;28.10;55.90
37794;DHT22;23632;48.826;15.176;2022-07-21T08:38:05;28.30;55.80
37794;DHT22;23632;48.826;15.176;2022-07-21T08:40:37;28.40;55.40
37794;DHT22;23632;48.826;15.176;2022-07-21T08:43:06;28.50;55.10
37794;DHT22;23632;48.826;15.176;2022-07-21T08:45:38;28.50;55.10
37794;DHT22;23632;48.826;15.176;2022-07-21T08:48:07;28.60;54.90
37794;DHT22;23632;48.826;15.176;2022-07-21T08:50:38;28.70;55.20
37794;DHT22;23632;48.826;15.176;2022-07-21T08:53:06;28.80;54.80
37794;DHT22;23632;48.826;15.176;2022-07-21T08:55:37;28.90;55.00
37794;DHT22;23632;48.826;15.176;2022-07-21T08:58:11;29.00;54.80
37794;DHT22;23632;48.826;15.176;2022-07-21T09:00:42;29.10;55.00
37794;DHT22;23632;48.826;15.176;2022-07-21T09:03:14;29.20;55.40
37794;DHT22;23632;48.826;15.176;2022-07-21T09:06:05;29.30;55.00
37794;DHT22;23632;48.826;15.176;2022-07-21T09:11:23;29.50;53.80
37794;DHT22;23632;48.826;15.176;2022-07-21T09:14:16;29.60;53.50
37794;DHT22;23632;48.826;15.176;2022-07-21T09:16:51;29.70;53.50
37794;DHT22;23632;48.826;15.176;2022-07-21T09:21:55;29.80;52.80
37794;DHT22;23632;48.826;15.176;2022-07-21T09:24:26;29.90;52.60
37794;DHT22;23632;48.826;15.176;2022-07-21T09:27:16;29.90;52.70
37794;DHT22;23632;48.826;15.176;2022-07-21T09:29:57;30.00;52.30
37794;DHT22;23632;48.826;15.176;2022-07-21T09:32:35;30.10;52.50
37794;DHT22;23632;48.826;15.176;2022-07-21T09:35:10;30.10;52.20
37794;DHT22;23632;48.826;15.176;2022-07-21T09:37:42;30.20;52.10
37794;DHT22;23632;48.826;15.176;2022-07-21T09:40:12;30.30;51.70
37794;DHT22;23632;48.826;15.176;2022-07-21T09:42:42;30.30;51.20
37794;DHT22;23632;48.826;15.176;2022-07-21T09:45:14;30.40;51.80
37794;DHT22;23632;48.826;15.176;2022-07-21T09:47:44;30.40;51.70
37794;DHT22;23632;48.826;15.176;2022-07-21T09:50:14;30.50;51.80
37794;DHT22;23632;48.826;15.176;2022-07-21T09:52:55;30.60;52.00
37794;DHT22;23632;48.826;15.176;2022-07-21T09:55:24;30.70;52.20
37794;DHT22;23632;48.826;15.176;2022-07-21T09:57:52;30.70;51.40
37794;DHT22;23632;48.826;15.176;2022-07-21T10:00:22;30.80;51.60
37794;DHT22;23632;48.826;15.176;2022-07-21T10:02:49;30.90;51.60
37794;DHT22;23632;48.826;15.176;2022-07-21T10:05:19;31.00;51.40
37794;DHT22;23632;48.826;15.176;2022-07-21T10:07:57;31.10;52.00
37794;DHT22;23632;48.826;15.176;2022-07-21T10:10:24;31.20;50.20
37794;DHT22;23632;48.826;15.176;2022-07-21T10:13:12;31.20;50.50
37794;DHT22;23632;48.826;15.176;2022-07-21T10:15:40;31.30;50.40
37794;DHT22;23632;48.826;15.176;2022-07-21T10:18:08;31.30;50.60
37794;DHT22;23632;48.826;15.176;2022-07-21T10:20:39;31.30;50.70
37794;DHT22;23632;48.826;15.176;2022-07-21T10:25:49;31.50;50.00
37794;DHT22;23632;48.826;15.176;2022-07-21T10:30:51;31.60;49.80
37794;DHT22;23632;48.826;15.176;2022-07-21T10:41:51;31.70;50.20
37794;DHT22;23632;48.826;15.176;2022-07-21T10:57:39;32.10;50.00
37794;DHT22;23632;48.826;15.176;2022-07-21T11:00:28;32.10;49.60
37794;DHT22;23632;48.826;15.176;2022-07-21T11:03:06;32.20;50.30
37794;DHT22;23632;48.826;15.176;2022-07-21T11:08:36;32.40;49.70
37794;DHT22;23632;48.826;15.176;2022-07-21T11:11:27;32.50;49.50
37794;DHT22;23632;48.826;15.176;2022-07-21T11:14:36;32.70;49.30
37794;DHT22;23632;48.826;15.176;2022-07-21T11:17:24;32.80;49.30
37794;DHT22;23632;48.826;15.176;2022-07-21T11:19:55;32.80;49.30
37794;DHT22;23632;48.826;15.176;2022-07-21T11:22:29;32.90;49.30
37794;DHT22;23632;48.826;15.176;2022-07-21T11:25:06;33.00;49.00
37794;DHT22;23632;48.826;15.176;2022-07-21T11:27:36;33.10;48.50
37794;DHT22;23632;48.826;15.176;2022-07-21T11:30:08;33.20;48.70
37794;DHT22;23632;48.826;15.176;2022-07-21T11:32:36;33.20;48.00
37794;DHT22;23632;48.826;15.176;2022-07-21T11:35:06;33.30;48.00
37794;DHT22;23632;48.826;15.176;2022-07-21T11:37:40;33.30;48.00
37794;DHT22;23632;48.826;15.176;2022-07-21T11:40:14;33.40;49.20
37794;DHT22;23632;48.826;15.176;2022-07-21T11:42:45;33.50;47.30
37794;DHT22;23632;48.826;15.176;2022-07-21T11:45:14;33.60;47.70
37794;DHT22;23632;48.826;15.176;2022-07-21T11:47:42;33.60;47.20
37794;DHT22;23632;48.826;15.176;2022-07-21T11:50:17;33.70;47.70
37794;DHT22;23632;48.826;15.176;2022-07-21T11:52:45;33.70;47.90
37794;DHT22;23632;48.826;15.176;2022-07-21T11:55:12;33.70;48.10
37794;DHT22;23632;48.826;15.176;2022-07-21T11:57:46;33.80;47.90
37794;DHT22;23632;48.826;15.176;2022-07-21T12:00:14;33.90;47.60
37794;DHT22;23632;48.826;15.176;2022-07-21T12:02:43;34.00;47.30
37794;DHT22;23632;48.826;15.176;2022-07-21T12:05:11;34.10;47.40
37794;DHT22;23632;48.826;15.176;2022-07-21T12:07:42;34.30;47.60
37794;DHT22;23632;48.826;15.176;2022-07-21T12:10:12;34.40;45.80
37794;DHT22;23632;48.826;15.176;2022-07-21T12:12:51;34.50;46.20
37794;DHT22;23632;48.826;15.176;2022-07-21T12:15:32;34.50;45.10
37794;DHT22;23632;48.826;15.176;2022-07-21T12:18:08;34.60;45.70
37794;DHT22;23632;48.826;15.176;2022-07-21T12:20:45;34.60;45.80
37794;DHT22;23632;48.826;15.176;2022-07-21T12:25:46;34.80;45.50
37794;DHT22;23632;48.826;15.176;2022-07-21T12:28:21;35.10;45.20
37794;DHT22;23632;48.826;15.176;2022-07-21T12:30:49;35.50;45.50
37794;DHT22;23632;48.826;15.176;2022-07-21T12:33:27;36.00;44.90
37794;DHT22;23632;48.826;15.176;2022-07-21T12:36:04;36.60;44.60
37794;DHT22;23632;48.826;15.176;2022-07-21T12:38:38;37.30;44.10
37794;DHT22;23632;48.826;15.176;2022-07-21T12:41:07;38.00;43.80
37794;DHT22;23632;48.826;15.176;2022-07-21T12:43:57;38.70;42.60
37794;DHT22;23632;48.826;15.176;2022-07-21T12:46:32;39.50;42.10
37794;DHT22;23632;48.826;15.176;2022-07-21T12:49:05;40.30;41.30
37794;DHT22;23632;48.826;15.176;2022-07-21T12:51:38;41.10;39.70
37794;DHT22;23632;48.826;15.176;2022-07-21T12:54:06;41.80;38.90
37794;DHT22;23632;48.826;15.176;2022-07-21T12:56:35;42.50;37.30
37794;DHT22;23632;48.826;15.176;2022-07-21T12:59:03;43.00;36.80
37794;DHT22;23632;48.826;15.176;2022-07-21T13:01:32;43.50;36.00
37794;DHT22;23632;48.826;15.176;2022-07-21T13:04:04;43.70;34.60
37794;DHT22;23632;48.826;15.176;2022-07-21T13:06:32;43.70;33.70
37794;DHT22;23632;48.826;15.176;2022-07-21T13:08:59;43.40;33.70
37794;DHT22;23632;48.826;15.176;2022-07-21T13:11:27;43.20;34.10
37794;DHT22;23632;48.826;15.176;2022-07-21T13:13:54;43.10;34.10
37794;DHT22;23632;48.826;15.176;2022-07-21T13:16:24;43.10;34.50
37794;DHT22;23632;48.826;15.176;2022-07-21T13:18:51;43.30;35.00
37794;DHT22;23632;48.826;15.176;2022-07-21T13:21:19;43.60;34.60
37794;DHT22;23632;48.826;15.176;2022-07-21T13:23:46;44.10;34.10
37794;DHT22;23632;48.826;15.176;2022-07-21T13:26:13;44.60;33.40
37794;DHT22;23632;48.826;15.176;2022-07-21T13:28:40;45.10;31.70
37794;DHT22;23632;48.826;15.176;2022-07-21T13:31:08;45.50;32.10
37794;DHT22;23632;48.826;15.176;2022-07-21T13:33:37;45.90;30.90
37794;DHT22;23632;48.826;15.176;2022-07-21T13:36:06;46.30;31.10
37794;DHT22;23632;48.826;15.176;2022-07-21T13:38:35;46.70;30.70
37794;DHT22;23632;48.826;15.176;2022-07-21T13:41:03;47.00;30.40
37794;DHT22;23632;48.826;15.176;2022-07-21T13:43:51;47.20;29.80
37794;DHT22;23632;48.826;15.176;2022-07-21T13:46:19;47.30;29.00
37794;DHT22;23632;48.826;15.176;2022-07-21T13:48:46;47.20;29.10
37794;DHT22;23632;48.826;15.176;2022-07-21T13:51:15;47.00;28.20
37794;DHT22;23632;48.826;15.176;2022-07-21T13:53:45;46.80;28.80
37794;DHT22;23632;48.826;15.176;2022-07-21T13:56:13;46.80;29.30
37794;DHT22;23632;48.826;15.176;2022-07-21T13:58:41;47.00;29.50
37794;DHT22;23632;48.826;15.176;2022-07-21T14:01:10;47.30;29.40
37794;DHT22;23632;48.826;15.176;2022-07-21T14:03:39;47.70;29.30
37794;DHT22;23632;48.826;15.176;2022-07-21T14:06:07;48.20;28.80
37794;DHT22;23632;48.826;15.176;2022-07-21T14:08:35;48.70;28.20
37794;DHT22;23632;48.826;15.176;2022-07-21T14:11:03;49.30;27.40
37794;DHT22;23632;48.826;15.176;2022-07-21T14:13:31;49.70;26.70
37794;DHT22;23632;48.826;15.176;2022-07-21T14:15:58;50.00;26.10
37794;DHT22;23632;48.826;15.176;2022-07-21T14:18:25;50.30;25.70
37794;DHT22;23632;48.826;15.176;2022-07-21T14:20:52;50.40;26.60
37794;DHT22;23632;48.826;15.176;2022-07-21T14:23:20;50.50;25.10
37794;DHT22;23632;48.826;15.176;2022-07-21T14:25:49;50.70;25.00
37794;DHT22;23632;48.826;15.176;2022-07-21T14:28:17;50.80;24.40
37794;DHT22;23632;48.826;15.176;2022-07-21T14:30:46;51.00;24.30
37794;DHT22;23632;48.826;15.176;2022-07-21T14:33:13;51.10;24.30
37794;DHT22;23632;48.826;15.176;2022-07-21T14:35:41;51.00;23.30
37794;DHT22;23632;48.826;15.176;2022-07-21T14:38:08;50.80;23.10
37794;DHT22;23632;48.826;15.176;2022-07-21T14:40:36;50.50;22.40
37794;DHT22;23632;48.826;15.176;2022-07-21T14:43:04;50.20;23.10
37794;DHT22;23632;48.826;15.176;2022-07-21T14:45:32;50.00;23.50
37794;DHT22;23632;48.826;15.176;2022-07-21T14:47:59;50.00;23.30
37794;DHT22;23632;48.826;15.176;2022-07-21T14:50:27;50.00;23.10
37794;DHT22;23632;48.826;15.176;2022-07-21T14:52:56;50.00;23.20
37794;DHT22;23632;48.826;15.176;2022-07-21T14:55:25;50.20;23.60
37794;DHT22;23632;48.826;15.176;2022-07-21T14:57:55;50.30;23.00
37794;DHT22;23632;48.826;15.176;2022-07-21T15:00:23;50.50;23.00
37794;DHT22;23632;48.826;15.176;2022-07-21T15:02:52;50.60;23.00
37794;DHT22;23632;48.826;15.176;2022-07-21T15:05:20;50.60;22.50
37794;DHT22;23632;48.826;15.176;2022-07-21T15:07:48;50.70;22.80
37794;DHT22;23632;48.826;15.176;2022-07-21T15:10:16;50.70;22.60
37794;DHT22;23632;48.826;15.176;2022-07-21T15:12:44;50.70;22.40
37794;DHT22;23632;48.826;15.176;2022-07-21T15:15:12;50.50;22.00
37794;DHT22;23632;48.826;15.176;2022-07-21T15:17:39;50.10;22.00
37794;DHT22;23632;48.826;15.176;2022-07-21T15:20:08;49.40;22.00
37794;DHT22;23632;48.826;15.176;2022-07-21T15:22:40;48.60;22.40
37794;DHT22;23632;48.826;15.176;2022-07-21T15:25:09;47.80;23.30
37794;DHT22;23632;48.826;15.176;2022-07-21T15:27:40;47.20;24.00
37794;DHT22;23632;48.826;15.176;2022-07-21T15:30:12;46.90;24.20
37794;DHT22;23632;48.826;15.176;2022-07-21T15:32:40;46.70;24.80
37794;DHT22;23632;48.826;15.176;2022-07-21T15:35:09;46.70;25.10
37794;DHT22;23632;48.826;15.176;2022-07-21T15:37:38;46.90;25.50
37794;DHT22;23632;48.826;15.176;2022-07-21T15:40:06;47.20;25.10
37794;DHT22;23632;48.826;15.176;2022-07-21T15:42:34;47.70;24.80
37794;DHT22;23632;48.826;15.176;2022-07-21T15:45:04;48.10;24.50
37794;DHT22;23632;48.826;15.176;2022-07-21T15:47:32;48.40;23.90
37794;DHT22;23632;48.826;15.176;2022-07-21T15:49:59;48.60;23.90
37794;DHT22;23632;48.826;15.176;2022-07-21T15:52:26;48.70;23.80
37794;DHT22;23632;48.826;15.176;2022-07-21T15:54:53;48.70;23.70
37794;DHT22;23632;48.826;15.176;2022-07-21T15:57:27;48.70;23.60
37794;DHT22;23632;48.826;15.176;2022-07-21T15:59:54;48.70;23.30
37794;DHT22;23632;48.826;15.176;2022-07-21T16:02:22;48.70;23.20
37794;DHT22;23632;48.826;15.176;2022-07-21T16:04:49;48.70;23.10
37794;DHT22;23632;48.826;15.176;2022-07-21T16:07:17;48.70;23.10